createdAt,value
2019-02-22T00:02:45.579Z,62.40
2019-02-22T00:07:51.038Z,63.30
2019-02-22T00:12:56.506Z,62.60
2019-02-22T00:18:01.987Z,62.60
2019-02-22T00:23:07.529Z,62.40
2019-02-22T00:28:13.057Z,61.90
2019-02-22T00:33:18.527Z,61.20
2019-02-22T00:38:27.053Z,60.40
2019-02-22T00:43:32.182Z,60.20
2019-02-22T00:48:38.975Z,58.50
2019-02-22T00:53:44.400Z,59.50
2019-02-22T00:58:49.855Z,58.80
2019-02-22T01:03:55.470Z,59.10
2019-02-22T01:09:00.941Z,59.20
2019-02-22T01:14:07.961Z,58.70
2019-02-22T01:19:13.382Z,58.90
2019-02-22T01:24:18.841Z,58.40
2019-02-22T01:29:24.261Z,59.20
2019-02-22T01:34:29.714Z,59.00
2019-02-22T01:39:36.005Z,58.10
2019-02-22T01:44:41.556Z,58.90
2019-02-22T01:49:47.260Z,58.50
2019-02-22T01:54:52.890Z,58.50
2019-02-22T01:59:58.408Z,58.70
2019-02-22T02:05:05.657Z,58.00
2019-02-22T02:10:11.359Z,57.70
2019-02-22T02:15:17.060Z,58.70
2019-02-22T02:20:22.562Z,62.10
2019-02-22T02:25:27.997Z,63.10
2019-02-22T02:30:33.685Z,61.10
2019-02-22T02:35:39.132Z,61.50
2019-02-22T02:41:07.084Z,62.10
2019-02-22T02:46:03.816Z,62.00
2019-02-22T02:51:09.278Z,63.20
2019-02-22T02:56:14.828Z,63.40
2019-02-22T03:01:20.315Z,62.30
2019-02-22T03:06:33.213Z,61.90
2019-02-22T03:11:38.658Z,60.10
2019-02-22T03:16:44.053Z,60.10
2019-02-22T03:21:49.497Z,61.20
2019-02-22T03:26:55.053Z,60.50
2019-02-22T03:32:00.502Z,61.80
2019-02-22T03:37:05.945Z,62.30
2019-02-22T03:42:11.365Z,63.80
2019-02-22T03:47:16.800Z,64.20
2019-02-22T03:52:23.869Z,62.90
2019-02-22T03:57:29.450Z,62.50
2019-02-22T04:02:34.893Z,61.60
2019-02-22T04:07:40.322Z,60.40
2019-02-22T04:12:45.770Z,60.10
2019-02-22T04:17:51.604Z,60.30
2019-02-22T04:22:57.042Z,59.50
2019-02-22T04:28:02.477Z,59.80
2019-02-22T04:33:07.912Z,60.80
2019-02-22T04:38:13.392Z,59.80
2019-02-22T04:43:18.852Z,59.90
2019-02-22T04:48:24.299Z,60.00
2019-02-22T04:53:30.718Z,59.90
2019-02-22T04:58:36.132Z,60.90
2019-02-22T05:03:41.678Z,61.00
2019-02-22T05:08:47.192Z,60.00
2019-02-22T05:13:52.822Z,60.00
2019-02-22T05:18:58.276Z,60.10
2019-02-22T05:24:03.801Z,59.10
2019-02-22T05:29:09.600Z,56.30
2019-02-22T05:34:15.215Z,55.30
2019-02-22T05:39:20.803Z,55.60
2019-02-22T05:44:26.305Z,54.90
2019-02-22T05:49:31.785Z,54.50
2019-02-22T05:54:37.453Z,55.00
2019-02-22T05:59:42.895Z,54.80
2019-02-22T06:04:48.438Z,56.40
2019-02-22T06:09:53.880Z,55.60
2019-02-22T06:14:59.333Z,55.50
2019-02-22T06:20:08.214Z,56.00
2019-02-22T06:25:13.700Z,56.10
2019-02-22T06:30:19.226Z,54.30
2019-02-22T06:35:24.680Z,54.30
2019-02-22T06:40:30.175Z,53.40
2019-02-22T06:45:35.680Z,54.00
2019-02-22T06:50:41.180Z,52.60
2019-02-22T06:55:46.608Z,51.60
2019-02-22T07:00:53.454Z,50.30
2019-02-22T07:05:58.964Z,46.80
2019-02-22T07:11:06.129Z,42.50
2019-02-22T07:16:11.591Z,39.30
2019-02-22T07:21:17.517Z,36.70
2019-02-22T07:26:24.041Z,35.90
2019-02-22T07:31:29.557Z,34.10
2019-02-22T07:36:35.029Z,31.10
2019-02-22T07:41:40.449Z,32.30
2019-02-22T07:46:45.969Z,31.70
2019-02-22T07:51:51.493Z,29.20
2019-02-22T07:56:56.916Z,27.50
2019-02-22T08:02:03.440Z,27.20
2019-02-22T08:07:08.872Z,29.00
2019-02-22T08:12:14.299Z,28.60
2019-02-22T08:17:19.826Z,28.50
2019-02-22T08:22:25.354Z,28.40
2019-02-22T08:27:30.801Z,28.70
2019-02-22T08:32:37.849Z,28.50
2019-02-22T08:37:43.591Z,28.20
2019-02-22T08:42:49.313Z,27.10
2019-02-22T08:47:54.815Z,25.30
2019-02-22T08:53:01.833Z,25.80
2019-02-22T08:58:07.529Z,27.20
2019-02-22T09:03:13.028Z,28.40
2019-02-22T09:08:20.428Z,27.70
2019-02-22T09:13:27.022Z,26.80
2019-02-22T09:18:32.465Z,26.20
2019-02-22T09:23:37.916Z,25.40
2019-02-22T09:28:43.366Z,25.70
2019-02-22T09:33:49.014Z,24.20
2019-02-22T09:38:54.554Z,24.90
2019-02-22T09:44:00.005Z,23.90
2019-02-22T09:49:06.125Z,23.10
2019-02-22T09:54:11.616Z,22.30
2019-02-22T09:59:17.462Z,23.80
2019-02-22T10:04:22.851Z,24.30
2019-02-22T10:09:28.430Z,23.30
2019-02-22T10:14:33.906Z,22.50
2019-02-22T10:19:39.359Z,23.90
2019-02-22T10:24:44.804Z,25.50
2019-02-22T10:29:51.333Z,26.90
2019-02-22T10:34:56.864Z,27.90
2019-02-22T10:40:02.335Z,29.80
2019-02-22T10:45:10.178Z,30.40
2019-02-22T10:50:17.217Z,31.40
2019-02-22T10:55:22.582Z,30.40
2019-02-22T11:00:28.132Z,29.10
2019-02-22T11:05:33.716Z,29.00
2019-02-22T11:10:39.308Z,30.80
2019-02-22T11:15:44.805Z,31.30
2019-02-22T11:20:50.285Z,30.70
2019-02-22T11:25:56.947Z,31.00
2019-02-22T11:31:02.403Z,30.10
2019-02-22T11:36:07.855Z,31.70
2019-02-22T11:41:13.295Z,31.90
2019-02-22T11:46:19.057Z,30.90
2019-02-22T11:51:24.509Z,31.40
2019-02-22T11:56:30.094Z,29.70
2019-02-22T12:01:35.520Z,30.80
2019-02-22T12:06:40.982Z,30.90
2019-02-22T12:11:46.493Z,31.30
2019-02-22T12:16:52.054Z,32.20
2019-02-22T12:21:57.518Z,31.90
2019-02-22T12:27:03.563Z,31.50
2019-02-22T12:32:09.009Z,30.00
2019-02-22T12:37:15.975Z,29.90
2019-02-22T12:42:21.732Z,28.40
2019-02-22T12:47:27.536Z,25.80
2019-02-22T12:52:32.909Z,24.30
2019-02-22T12:57:38.436Z,25.30
2019-02-22T13:02:45.490Z,23.40
2019-02-22T13:07:52.638Z,22.20
2019-02-22T13:12:58.121Z,21.30
2019-02-22T13:18:03.722Z,20.00
2019-02-22T13:23:09.176Z,20.50
2019-02-22T13:28:15.739Z,22.50
2019-02-22T13:33:21.256Z,21.80
2019-02-22T13:38:26.763Z,23.20
2019-02-22T13:43:32.268Z,26.40
2019-02-22T13:48:37.724Z,27.00
2019-02-22T13:53:43.195Z,28.70
2019-02-22T13:58:48.641Z,28.50
2019-02-22T14:03:55.270Z,28.70
2019-02-22T14:09:00.719Z,28.60
2019-02-22T14:14:08.116Z,29.10
2019-02-22T14:19:13.726Z,28.60
2019-02-22T14:24:19.325Z,29.10
2019-02-22T14:29:24.760Z,28.70
2019-02-22T14:34:30.225Z,28.70
2019-02-22T14:39:35.740Z,28.50
2019-02-22T14:44:41.260Z,27.00
2019-02-22T14:49:46.706Z,25.90
2019-02-22T14:54:52.507Z,25.20
2019-02-22T14:59:58.089Z,26.60
2019-02-22T15:05:03.886Z,27.30
2019-02-22T15:10:10.652Z,27.50
2019-02-22T15:15:17.966Z,25.20
2019-02-22T15:20:23.559Z,25.80
2019-02-22T15:25:29.158Z,26.80
2019-02-22T15:30:35.789Z,27.20
2019-02-22T15:35:41.245Z,26.60
2019-02-22T15:40:46.731Z,27.80
2019-02-22T15:45:52.233Z,28.60
2019-02-22T15:50:57.745Z,29.50
2019-02-22T15:56:04.890Z,29.10
2019-02-22T16:01:10.437Z,29.60
2019-02-22T16:06:15.947Z,30.10
2019-02-22T16:11:21.390Z,30.30
2019-02-22T16:16:26.833Z,31.70
2019-02-22T16:21:32.268Z,32.50
2019-02-22T16:26:37.764Z,33.20
2019-02-22T16:31:43.451Z,33.40
2019-02-22T16:36:48.898Z,33.10
2019-02-22T16:41:54.426Z,33.50
2019-02-22T16:46:59.882Z,33.20
2019-02-22T16:52:05.753Z,33.80
2019-02-22T16:57:11.608Z,34.30
2019-02-22T17:02:17.144Z,34.20
2019-02-22T17:07:22.738Z,34.20
2019-02-22T17:12:28.200Z,34.60
2019-02-22T17:17:33.901Z,34.30
2019-02-22T17:22:39.492Z,34.40
2019-02-22T17:27:45.433Z,34.30
2019-02-22T17:32:50.863Z,34.90
2019-02-22T17:37:56.547Z,34.70
2019-02-22T17:43:02.040Z,34.60
2019-02-22T17:48:07.571Z,34.40
2019-02-22T17:53:13.641Z,34.70
2019-02-22T17:58:24.514Z,34.70
2019-02-22T18:03:26.250Z,35.00
2019-02-22T18:08:31.782Z,34.90
2019-02-22T18:13:37.247Z,34.70
2019-02-22T18:18:43.601Z,35.40
2019-02-22T18:23:49.194Z,35.10
2019-02-22T18:28:54.690Z,35.70
2019-02-22T18:34:00.409Z,36.10
2019-02-22T18:39:06.695Z,36.50
2019-02-22T18:44:12.318Z,36.20
2019-02-22T18:49:17.790Z,36.80
2019-02-22T18:54:24.509Z,37.20
2019-02-22T18:59:31.017Z,37.10
2019-02-22T19:04:36.468Z,37.80
2019-02-22T19:09:41.909Z,37.40
2019-02-22T19:14:47.380Z,36.70
2019-02-22T19:19:52.828Z,36.70
2019-02-22T19:24:58.273Z,36.20
2019-02-22T19:30:05.173Z,36.90
2019-02-22T19:35:10.692Z,36.90
2019-02-22T19:40:21.863Z,37.40
2019-02-22T19:45:27.494Z,37.10
2019-02-22T19:50:41.133Z,36.90
2019-02-22T19:55:40.172Z,37.00
2019-02-22T20:00:45.624Z,37.70
2019-02-22T20:05:51.160Z,37.90
2019-02-22T20:10:56.611Z,37.30
2019-02-22T20:16:02.220Z,37.50
2019-02-22T20:21:07.908Z,38.40
2019-02-22T20:26:13.342Z,37.90
2019-02-22T20:31:20.502Z,37.50
2019-02-22T20:36:28.650Z,38.20
2019-02-22T20:41:34.287Z,37.90
2019-02-22T20:46:39.857Z,37.40
2019-02-22T20:51:45.463Z,37.60
2019-02-22T20:56:50.972Z,37.00
2019-02-22T21:01:56.806Z,37.30
2019-02-22T21:07:03.685Z,37.80
2019-02-22T21:12:09.128Z,37.40
2019-02-22T21:17:14.574Z,36.80
2019-02-22T21:22:20.022Z,37.40
2019-02-22T21:27:25.460Z,37.80
2019-02-22T21:32:30.991Z,37.40
2019-02-22T21:37:38.526Z,37.60
2019-02-22T21:42:44.110Z,37.20
2019-02-22T21:47:54.773Z,37.00
2019-02-22T21:52:56.852Z,37.00
2019-02-22T21:58:02.297Z,37.40
2019-02-22T22:03:07.753Z,37.40
2019-02-22T22:08:13.273Z,37.10
2019-02-22T22:13:18.793Z,37.10
2019-02-22T22:18:24.257Z,37.50
2019-02-22T22:23:29.704Z,37.50
2019-02-22T22:28:35.212Z,37.70
2019-02-22T22:33:40.639Z,38.10
2019-02-22T22:38:46.082Z,38.60
2019-02-22T22:43:51.524Z,38.80
2019-02-22T22:48:57.061Z,39.00
2019-02-22T22:54:02.542Z,39.20
2019-02-22T22:59:07.993Z,39.40
2019-02-22T23:04:13.554Z,39.30
2019-02-22T23:09:20.909Z,39.50
2019-02-22T23:14:26.413Z,39.40
2019-02-22T23:19:32.048Z,39.40
2019-02-22T23:24:37.557Z,39.40
2019-02-22T23:29:42.947Z,39.80
2019-02-22T23:34:48.358Z,39.70
2019-02-22T23:39:53.756Z,40.10
2019-02-22T23:44:59.112Z,39.90
2019-02-22T23:50:06.695Z,39.60
2019-02-22T23:55:12.179Z,39.70
